Time;durP1;ratioP1;P1;durP2;ratioP2;P2;SDS_P1;SDS_P2;PMS_P1;PMS_P2;Temp;Humidity;BMP_temperature;BMP_pressure;BME280_temperature;BME280_humidity;BME280_pressure;Samples;Min_cycle;Max_cycle;Signal;HPM_P1;HPM_P2
2023/10/11 00:01:29;;;;;;;17.25;14.10;;;18.40;78.10;;;;;;5021978;28;20637;-78
2023/10/11 00:03:56;;;;;;;16.58;14.10;;;18.40;78.20;;;;;;5019002;28;20626;-78
2023/10/11 00:06:24;;;;;;;18.23;14.18;;;18.40;78.10;;;;;;5019470;28;20148;-78
2023/10/11 00:08:51;;;;;;;17.40;14.07;;;18.40;78.20;;;;;;5020475;28;20104;-77
2023/10/11 00:11:23;;;;;;;22.00;14.55;;;18.40;78.20;;;;;;5017325;28;20022;-78
2023/10/11 00:13:49;;;;;;;18.40;12.90;;;18.40;78.30;;;;;;5022425;28;20037;-78
2023/10/11 00:16:17;;;;;;;15.57;13.82;;;18.40;78.80;;;;;;5002885;28;20080;-79
2023/10/11 00:18:43;;;;;;;18.95;13.57;;;18.40;78.30;;;;;;5021833;28;20037;-77
2023/10/11 00:21:11;;;;;;;16.27;13.68;;;18.40;78.90;;;;;;5014804;28;20542;-78
2023/10/11 00:23:42;;;;;;;17.80;14.00;;;18.40;78.40;;;;;;5027299;28;20263;-78
2023/10/11 00:26:08;;;;;;;14.30;12.80;;;18.40;78.50;;;;;;5023224;28;20037;-78
2023/10/11 00:28:38;;;;;;;18.40;13.95;;;18.40;78.40;;;;;;5021522;28;20116;-78
2023/10/11 00:31:11;;;;;;;16.63;12.57;;;18.40;78.50;;;;;;5021668;28;20328;-77
2023/10/11 00:33:37;;;;;;;15.38;13.70;;;18.40;78.50;;;;;;5023282;28;20032;-78
2023/10/11 00:36:04;;;;;;;21.75;14.55;;;18.40;78.60;;;;;;5014632;28;20030;-78
2023/10/11 00:38:31;;;;;;;15.93;13.85;;;18.30;78.50;;;;;;5024231;28;20052;-78
2023/10/11 00:41:12;;;;;;;17.92;13.80;;;18.30;78.60;;;;;;5011607;28;20408;-78
2023/10/11 00:43:46;;;;;;;18.13;13.60;;;18.30;78.60;;;;;;5020585;28;20029;-78
2023/10/11 00:46:18;;;;;;;15.00;13.45;;;18.30;78.70;;;;;;5019158;28;20037;-78
2023/10/11 00:48:55;;;;;;;21.70;13.30;;;18.30;78.70;;;;;;5017993;28;20038;-78
2023/10/11 00:51:29;;;;;;;14.35;12.95;;;18.30;78.80;;;;;;5017971;28;20027;-77
2023/10/11 00:53:57;;;;;;;17.48;13.70;;;18.30;78.90;;;;;;5018752;28;20140;-78
2023/10/11 00:56:31;;;;;;;14.57;12.50;;;18.30;78.90;;;;;;5016001;28;20141;-77
2023/10/11 00:58:58;;;;;;;16.00;13.02;;;18.30;79.00;;;;;;5018150;28;20647;-79
2023/10/11 01:01:25;;;;;;;16.35;12.95;;;18.30;79.00;;;;;;5021378;28;20420;-78
2023/10/11 01:03:53;;;;;;;15.07;12.63;;;18.30;79.10;;;;;;5021634;28;20655;-77
2023/10/11 01:06:19;;;;;;;18.38;12.73;;;18.30;79.20;;;;;;5013437;28;20029;-76
2023/10/11 01:08:48;;;;;;;15.60;13.43;;;18.30;79.20;;;;;;5021771;28;20041;-78
2023/10/11 01:11:15;;;;;;;19.30;13.30;;;18.30;79.30;;;;;;5020094;28;20021;-78
2023/10/11 01:13:42;;;;;;;15.35;12.15;;;18.30;79.40;;;;;;5021120;28;20032;-78
2023/10/11 01:16:10;;;;;;;17.58;13.73;;;18.30;79.40;;;;;;5015030;28;20025;-79
2023/10/11 01:18:40;;;;;;;16.08;13.15;;;18.30;79.50;;;;;;5020411;28;20033;-79
2023/10/11 01:21:07;;;;;;;15.43;11.88;;;18.30;79.60;;;;;;5015604;28;20123;-78
2023/10/11 01:23:34;;;;;;;16.30;12.43;;;18.20;79.40;;;;;;5021944;28;20265;-77
2023/10/11 01:26:07;;;;;;;15.18;13.63;;;18.30;79.60;;;;;;5019462;28;20029;-78
2023/10/11 01:28:38;;;;;;;16.38;12.35;;;18.30;79.70;;;;;;5022537;28;20037;-77
2023/10/11 01:31:08;;;;;;;13.68;12.00;;;18.30;79.80;;;;;;5012592;28;20088;-78
2023/10/11 01:33:42;;;;;;;13.35;11.90;;;18.30;79.70;;;;;;5021151;28;20049;-78
2023/10/11 01:36:10;;;;;;;15.75;12.00;;;18.30;79.80;;;;;;5009660;28;20039;-77
2023/10/11 01:38:47;;;;;;;14.38;12.20;;;18.30;79.80;;;;;;5015245;28;20053;-77
2023/10/11 01:41:14;;;;;;;14.80;11.57;;;18.30;79.90;;;;;;5020387;28;20130;-78
2023/10/11 01:43:40;;;;;;;17.27;12.95;;;18.30;79.90;;;;;;5024108;28;20083;-79
2023/10/11 01:46:06;;;;;;;14.15;12.20;;;18.30;80.00;;;;;;5016675;28;20053;-78
2023/10/11 01:48:32;;;;;;;15.55;11.50;;;18.30;80.00;;;;;;5016534;28;20542;-78
2023/10/11 01:51:05;;;;;;;14.13;12.57;;;18.30;80.00;;;;;;5015373;28;20065;-78
2023/10/11 01:53:31;;;;;;;15.13;11.95;;;18.30;80.10;;;;;;5018329;28;20330;-77
2023/10/11 01:55:57;;;;;;;14.45;12.40;;;18.30;80.10;;;;;;5014311;28;20037;-78
2023/10/11 01:58:23;;;;;;;15.05;11.82;;;18.30;80.10;;;;;;5014940;28;20563;-77
2023/10/11 02:00:49;;;;;;;15.68;12.90;;;18.20;80.00;;;;;;5017573;28;20049;-77
2023/10/11 02:03:15;;;;;;;15.90;13.05;;;18.30;80.20;;;;;;5016795;28;20029;-77
2023/10/11 02:05:43;;;;;;;16.02;12.00;;;18.20;80.10;;;;;;5013106;28;21015;-77
2023/10/11 02:08:14;;;;;;;16.75;12.80;;;18.20;80.10;;;;;;5015494;28;20379;-77
2023/10/11 02:10:40;;;;;;;13.52;11.73;;;18.20;80.10;;;;;;5016184;28;20037;-77
2023/10/11 02:13:09;;;;;;;16.08;11.88;;;18.20;80.20;;;;;;5015930;28;20040;-77
2023/10/11 02:15:37;;;;;;;13.85;11.48;;;18.20;80.30;;;;;;5013642;28;20056;-78
2023/10/11 02:18:10;;;;;;;13.95;11.60;;;18.20;80.40;;;;;;5016294;28;20727;-78
2023/10/11 02:20:45;;;;;;;;;;;18.20;80.40;;;;;;4995552;28;20045;-77
2023/10/11 02:23:11;;;;;;;13.63;10.65;;;18.20;80.40;;;;;;5016982;28;19909;-79
2023/10/11 02:25:39;;;;;;;14.68;11.52;;;18.20;80.30;;;;;;5007899;28;20076;-78
2023/10/11 02:28:09;;;;;;;13.38;11.77;;;18.20;80.40;;;;;;5013219;28;20033;-77
2023/10/11 02:30:38;;;;;;;18.27;11.98;;;18.20;80.50;;;;;;5016831;28;20087;-77
2023/10/11 02:33:07;;;;;;;13.75;10.60;;;18.20;80.50;;;;;;5022890;28;20033;-77
2023/10/11 02:35:51;;;;;;;15.13;11.35;;;18.20;80.60;;;;;;5021230;28;20132;-79
2023/10/11 02:38:23;;;;;;;11.98;10.23;;;18.20;80.70;;;;;;4995347;28;20070;-78
2023/10/11 02:40:56;;;;;;;14.45;10.40;;;18.20;80.70;;;;;;5014580;28;20072;-77
2023/10/11 02:43:22;;;;;;;;;;;18.20;80.80;;;;;;5010917;28;20034;-77
2023/10/11 02:45:49;;;;;;;12.75;9.60;;;18.20;80.70;;;;;;5027806;28;19967;-78
2023/10/11 02:48:19;;;;;;;11.32;9.82;;;18.20;80.70;;;;;;5008139;28;20038;-78
2023/10/11 02:50:54;;;;;;;11.40;9.77;;;18.20;80.70;;;;;;5008270;28;20797;-77
2023/10/11 02:53:23;;;;;;;12.88;10.23;;;18.20;80.80;;;;;;5030218;28;20029;-77
2023/10/11 02:55:59;;;;;;;12.15;10.50;;;18.20;80.80;;;;;;4989166;28;20053;-78
2023/10/11 02:58:26;;;;;;;12.45;9.45;;;18.20;80.90;;;;;;5017411;28;20069;-78
2023/10/11 03:01:05;;;;;;;14.30;10.77;;;18.20;80.90;;;;;;5007750;28;20063;-78
2023/10/11 03:03:38;;;;;;;11.68;10.15;;;18.20;81.00;;;;;;5016614;28;20099;-78
2023/10/11 03:06:08;;;;;;;12.65;10.32;;;18.20;81.00;;;;;;5011010;28;20087;-76
2023/10/11 03:08:37;;;;;;;11.57;9.77;;;18.30;81.20;;;;;;5017748;28;20022;-78
2023/10/11 03:11:15;;;;;;;10.68;9.68;;;18.20;81.10;;;;;;5015528;28;20029;-78
2023/10/11 03:13:43;;;;;;;11.43;9.45;;;18.30;81.30;;;;;;5015916;28;20038;-78
2023/10/11 03:16:13;;;;;;;15.00;11.30;;;18.20;81.20;;;;;;5013785;28;20037;-77
2023/10/11 03:18:40;;;;;;;13.70;11.30;;;18.20;81.20;;;;;;5020726;28;20091;-77
2023/10/11 03:21:19;;;;;;;11.45;10.23;;;18.20;81.30;;;;;;5016350;28;20069;-77
2023/10/11 03:23:55;;;;;;;11.70;10.50;;;18.20;81.40;;;;;;5018852;28;20542;-79
2023/10/11 03:26:31;;;;;;;11.95;10.75;;;18.20;81.50;;;;;;5013724;28;20385;-79
2023/10/11 03:29:05;;;;;;;13.15;11.90;;;18.20;81.40;;;;;;5012805;28;20043;-77
2023/10/11 03:31:40;;;;;;;15.63;11.68;;;18.20;81.50;;;;;;5015963;28;20535;-77
2023/10/11 03:34:14;;;;;;;16.95;11.10;;;18.20;81.50;;;;;;5016576;28;20104;-77
2023/10/11 03:36:52;;;;;;;14.40;11.60;;;18.20;81.60;;;;;;5012748;28;20060;-77
2023/10/11 03:39:28;;;;;;;13.43;10.80;;;18.20;81.60;;;;;;5012861;28;20045;-77
2023/10/11 03:42:17;;;;;;;12.45;10.43;;;18.20;81.70;;;;;;5007702;28;20051;-78
2023/10/11 03:44:53;;;;;;;12.98;11.27;;;18.20;81.70;;;;;;5009098;28;20037;-77
2023/10/11 03:47:26;;;;;;;12.80;11.13;;;18.20;81.70;;;;;;5008165;28;20038;-78
2023/10/11 03:49:52;;;;;;;12.15;10.88;;;18.20;81.70;;;;;;5011134;28;20054;-77
2023/10/11 03:52:22;;;;;;;13.90;11.18;;;18.20;81.70;;;;;;5012460;28;20643;-77
2023/10/11 03:54:54;;;;;;;11.60;10.38;;;18.20;81.80;;;;;;5016049;28;20817;-79
2023/10/11 03:57:20;;;;;;;11.30;10.10;;;18.20;81.80;;;;;;5021931;28;20382;-78
2023/10/11 03:59:52;;;;;;;13.90;10.30;;;18.20;81.80;;;;;;5018507;28;20095;-79
2023/10/11 04:02:19;;;;;;;11.18;10.02;;;18.20;81.90;;;;;;5017678;28;20795;-78
2023/10/11 04:04:49;;;;;;;13.55;10.23;;;18.20;82.00;;;;;;5016476;28;20060;-78
2023/10/11 04:07:16;;;;;;;13.85;10.30;;;18.20;82.00;;;;;;5016760;28;20034;-77
2023/10/11 04:09:46;;;;;;;12.52;9.68;;;18.20;82.10;;;;;;5015287;28;20026;-76
2023/10/11 04:12:12;;;;;;;12.38;9.43;;;18.20;82.10;;;;;;5017329;28;20041;-76
2023/10/11 04:14:39;;;;;;;11.10;10.00;;;18.20;82.10;;;;;;5013284;28;20038;-77
2023/10/11 04:19:48;;;;;;;12.52;11.02;;;18.20;82.30;;;;;;5039413;28;20030;-76
2023/10/11 04:22:17;;;;;;;11.43;9.75;;;18.20;82.30;;;;;;5018599;28;20139;-77
2023/10/11 04:24:48;;;;;;;11.77;8.82;;;18.20;82.30;;;;;;5018965;28;20033;-79
2023/10/11 04:27:57;;;;;;;11.50;8.85;;;18.20;82.40;;;;;;5035924;28;20128;-78
2023/10/11 04:30:17;;;;;;;13.05;9.65;;;18.20;82.40;;;;;;5009293;28;20048;-79
2023/10/11 04:32:47;;;;;;;10.80;9.10;;;18.20;82.50;;;;;;5019720;28;20505;-78
2023/10/11 04:35:21;;;;;;;12.35;9.45;;;18.20;82.50;;;;;;5016869;28;20033;-77
2023/10/11 04:37:54;;;;;;;10.10;8.63;;;18.20;82.50;;;;;;5011720;28;20044;-78
2023/10/11 04:43:05;;;;;;;11.85;9.20;;;18.20;82.70;;;;;;5009636;28;20022;-78
2023/10/11 04:45:44;;;;;;;11.90;8.98;;;18.20;82.70;;;;;;5012258;28;20352;-79
2023/10/11 04:48:29;;;;;;;10.10;8.68;;;18.20;82.70;;;;;;5011107;28;20118;-78
2023/10/11 04:59:08;;;;;;;9.57;8.68;;;18.20;82.90;;;;;;5016796;28;20041;-77
2023/10/11 05:04:14;;;;;;;9.82;8.85;;;18.20;82.90;;;;;;5019147;28;20091;-78
2023/10/11 05:06:41;;;;;;;10.40;8.48;;;18.20;83.00;;;;;;5018146;28;20087;-78
2023/10/11 05:11:44;;;;;;;10.98;8.32;;;18.20;83.10;;;;;;5022977;28;20053;-78
2023/10/11 05:14:56;;;;;;;9.25;8.30;;;18.20;83.10;;;;;;5018518;28;20029;-79
2023/10/11 05:19:45;;;;;;;8.95;8.05;;;18.20;83.10;;;;;;5043692;28;20037;-78
2023/10/11 05:22:29;;;;;;;9.75;8.45;;;18.20;83.20;;;;;;5019632;28;20156;-77
2023/10/11 05:30:16;;;;;;;10.80;8.05;;;18.20;83.30;;;;;;5011562;28;20034;-78
2023/10/11 05:50:50;;;;;;;9.00;8.02;;;18.20;83.20;;;;;;5018404;28;20047;-76
2023/10/11 05:52:14;;;;;;;12.40;8.05;;;18.20;84.20;;;;;;5017778;28;20064;-79
2023/10/11 05:54:40;;;;;;;12.93;7.85;;;18.20;83.70;;;;;;4997201;28;20483;-78
2023/10/11 05:57:07;;;;;;;10.02;7.22;;;18.20;83.80;;;;;;5014042;28;20328;-80
2023/10/11 05:59:37;;;;;;;11.05;7.18;;;18.30;84.00;;;;;;5026345;28;20068;-81
2023/10/11 06:02:07;;;;;;;10.38;7.78;;;18.30;84.00;;;;;;5016831;28;20057;-79
2023/10/11 06:04:39;;;;;;;11.43;7.15;;;18.30;84.00;;;;;;5005396;28;20032;-81
2023/10/11 06:07:06;;;;;;;10.05;7.22;;;18.30;84.00;;;;;;5012580;28;20029;-82
2023/10/11 06:09:39;;;;;;;9.40;7.50;;;18.30;84.00;;;;;;5015827;28;20041;-80
2023/10/11 06:12:10;;;;;;;9.88;6.95;;;18.40;84.20;;;;;;5014508;28;20516;-80
2023/10/11 06:14:36;;;;;;;10.00;6.47;;;18.40;84.20;;;;;;5009890;28;20377;-78
2023/10/11 06:17:05;;;;;;;9.02;6.80;;;18.40;84.20;;;;;;5005784;28;20026;-78
2023/10/11 06:19:31;;;;;;;10.25;7.13;;;18.40;84.20;;;;;;5010727;28;20515;-79
2023/10/11 06:22:00;;;;;;;8.82;6.97;;;18.40;84.20;;;;;;5019408;28;20049;-79
2023/10/11 06:24:33;;;;;;;9.52;7.03;;;18.40;84.30;;;;;;5016687;28;20017;-80
2023/10/11 06:29:37;;;;;;;10.25;5.93;;;18.40;84.40;;;;;;5011019;28;20064;-79
2023/10/11 06:32:11;;;;;;;7.70;6.18;;;18.40;84.40;;;;;;5025179;28;20468;-79
2023/10/11 06:34:38;;;;;;;6.93;6.25;;;18.40;84.40;;;;;;5016827;28;20032;-77
2023/10/11 06:37:06;;;;;;;7.47;6.40;;;18.40;84.40;;;;;;5009963;28;20176;-78
2023/10/11 06:42:17;;;;;;;7.80;5.80;;;18.40;84.50;;;;;;5020142;28;20279;-79
2023/10/11 06:44:48;;;;;;;7.25;5.65;;;18.40;84.50;;;;;;5019354;28;20041;-78
2023/10/11 06:47:20;;;;;;;9.90;6.22;;;18.40;84.60;;;;;;5021789;28;20052;-78
2023/10/11 06:49:55;;;;;;;7.45;5.68;;;18.40;84.60;;;;;;5013757;28;20041;-80
2023/10/11 06:52:30;;;;;;;9.65;5.65;;;18.50;84.80;;;;;;5025359;28;20037;-78
2023/10/11 06:58:05;;;;;;;10.00;5.47;;;18.40;84.60;;;;;;5017184;28;20033;-78
2023/10/11 07:00:37;;;;;;;12.43;7.13;;;18.50;84.80;;;;;;5006861;28;20596;-79
2023/10/11 07:03:21;;;;;;;8.45;5.80;;;18.50;84.70;;;;;;5014280;28;20036;-78
2023/10/11 07:05:49;;;;;;;7.35;6.30;;;18.50;84.80;;;;;;5025135;28;20033;-78
2023/10/11 07:08:18;;;;;;;7.80;5.78;;;18.50;84.80;;;;;;5012765;28;20056;-79
2023/10/11 07:10:45;;;;;;;6.05;5.45;;;18.50;84.70;;;;;;5017653;28;20094;-79
2023/10/11 07:13:13;;;;;;;6.53;5.93;;;18.60;84.90;;;;;;5005113;28;20516;-78
2023/10/11 07:15:46;;;;;;;7.68;5.13;;;18.60;85.00;;;;;;5011363;28;20057;-78
2023/10/11 07:18:25;;;;;;;6.80;6.20;;;18.60;85.00;;;;;;5013155;28;20232;-79
2023/10/11 07:21:05;;;;;;;6.63;4.82;;;18.70;85.10;;;;;;5016060;28;20041;-78
2023/10/11 07:29:02;;;;;;;9.70;5.40;;;18.70;85.00;;;;;;5009506;28;20475;-79
2023/10/11 07:31:32;;;;;;;12.07;6.35;;;18.70;85.00;;;;;;5013765;28;20041;-78
2023/10/11 07:34:02;;;;;;;6.07;4.85;;;18.80;85.10;;;;;;5012886;28;20034;-78
2023/10/11 07:36:28;;;;;;;5.88;4.25;;;18.80;85.10;;;;;;5008033;28;20037;-79
2023/10/11 07:38:54;;;;;;;7.50;5.25;;;18.80;85.10;;;;;;5011145;28;20085;-78
2023/10/11 07:41:24;;;;;;;6.43;4.63;;;18.80;85.10;;;;;;5013480;28;20649;-77
2023/10/11 07:43:50;;;;;;;7.43;5.20;;;18.90;85.20;;;;;;5017765;28;20044;-78
2023/10/11 07:46:17;;;;;;;6.43;4.63;;;18.90;85.30;;;;;;5015167;28;20033;-78
2023/10/11 07:48:43;;;;;;;8.57;4.65;;;18.90;85.30;;;;;;5027170;28;20096;-77
2023/10/11 07:51:12;;;;;;;6.07;4.75;;;19.00;85.50;;;;;;5005400;28;20032;-77
2023/10/11 07:53:45;;;;;;;6.78;4.72;;;19.00;85.60;;;;;;5017246;28;20369;-77
2023/10/11 07:56:15;;;;;;;6.53;4.65;;;19.10;85.70;;;;;;5009130;28;20408;-76
2023/10/11 07:58:45;;;;;;;9.15;4.70;;;19.10;85.50;;;;;;5012333;28;20272;-76
2023/10/11 08:01:15;;;;;;;5.80;4.43;;;19.20;85.60;;;;;;5007560;28;20044;-78
2023/10/11 08:03:44;;;;;;;6.00;3.75;;;19.30;85.60;;;;;;5011119;28;20105;-78
2023/10/11 08:06:14;;;;;;;6.63;4.38;;;19.40;85.60;;;;;;5011987;28;20566;-77
2023/10/11 08:08:40;;;;;;;5.05;3.95;;;19.40;85.50;;;;;;5006642;28;20112;-78
2023/10/11 08:11:22;;;;;;;6.55;4.28;;;19.50;85.50;;;;;;5012780;28;20034;-76
2023/10/11 08:13:49;;;;;;;8.50;4.22;;;19.60;85.50;;;;;;5009644;28;20083;-77
2023/10/11 08:16:19;;;;;;;7.53;4.40;;;19.60;85.30;;;;;;5003999;28;20033;-77
2023/10/11 08:18:48;;;;;;;4.35;3.95;;;19.70;85.40;;;;;;5011326;28;20124;-77
2023/10/11 08:21:16;;;;;;;5.63;4.20;;;19.70;85.20;;;;;;5019243;28;20041;-77
2023/10/11 08:23:42;;;;;;;5.93;4.43;;;19.80;85.20;;;;;;4997927;28;20052;-77
2023/10/11 08:26:14;;;;;;;7.18;4.25;;;19.80;85.10;;;;;;5003085;28;20069;-78
2023/10/11 08:28:48;;;;;;;3.80;3.47;;;19.90;85.20;;;;;;5005211;28;20030;-77
2023/10/11 08:34:03;;;;;;;6.20;4.35;;;20.00;85.00;;;;;;5013768;28;20472;-78
2023/10/11 08:36:35;;;;;;;5.53;3.92;;;20.00;84.80;;;;;;5013461;28;20033;-77
2023/10/11 08:39:06;;;;;;;4.93;4.22;;;20.10;84.90;;;;;;5009629;28;20056;-77
2023/10/11 08:41:35;;;;;;;7.05;4.68;;;20.10;84.70;;;;;;5021820;28;20033;-77
2023/10/11 08:44:08;;;;;;;6.45;4.25;;;20.20;84.80;;;;;;5019785;28;20030;-78
2023/10/11 08:46:39;;;;;;;4.57;3.90;;;20.20;84.60;;;;;;5016138;28;20108;-77
2023/10/11 08:49:07;;;;;;;5.35;4.10;;;20.30;84.60;;;;;;5017546;28;20505;-77
2023/10/11 08:51:36;;;;;;;5.25;4.45;;;20.40;84.50;;;;;;5009633;28;20222;-77
2023/10/11 08:54:11;;;;;;;5.82;3.78;;;20.40;84.30;;;;;;5018247;28;20040;-77
2023/10/11 08:56:43;;;;;;;4.18;3.78;;;20.50;84.20;;;;;;5009088;28;20460;-76
2023/10/11 08:59:15;;;;;;;7.78;4.00;;;20.60;84.10;;;;;;5023031;28;20069;-76
2023/10/11 09:01:45;;;;;;;5.68;4.47;;;20.80;84.00;;;;;;5021255;28;20232;-77
2023/10/11 09:04:13;;;;;;;8.77;3.90;;;20.80;83.70;;;;;;5020156;28;20094;-78
2023/10/11 09:06:43;;;;;;;5.40;3.72;;;20.90;83.50;;;;;;4997900;28;20401;-76
2023/10/11 09:09:32;;;;;;;4.05;3.55;;;21.00;83.30;;;;;;5026146;28;20037;-78
2023/10/11 09:11:59;;;;;;;4.68;4.10;;;21.10;83.20;;;;;;5013699;28;20033;-76
2023/10/11 09:14:28;;;;;;;5.90;3.40;;;21.20;83.00;;;;;;5018600;28;20279;-75
2023/10/11 09:17:02;;;;;;;7.03;4.03;;;21.30;82.90;;;;;;5012225;28;20045;-76
2023/10/11 09:19:29;;;;;;;6.15;3.40;;;21.40;82.80;;;;;;5017529;28;20035;-74
2023/10/11 09:22:04;;;;;;;5.35;3.60;;;21.50;82.70;;;;;;5020925;28;20439;-75
2023/10/11 09:24:37;;;;;;;4.80;3.80;;;21.60;82.50;;;;;;5020396;28;20246;-74
2023/10/11 09:29:43;;;;;;;6.78;3.72;;;21.80;82.20;;;;;;5018537;28;20646;-75
2023/10/11 09:32:09;;;;;;;9.60;4.10;;;21.90;82.00;;;;;;5014626;28;20484;-76
2023/10/11 09:34:41;;;;;;;5.63;3.67;;;21.90;81.70;;;;;;5015891;28;20040;-76
2023/10/11 09:37:11;;;;;;;7.83;3.90;;;22.00;81.60;;;;;;5012846;28;20044;-75
2023/10/11 09:39:38;;;;;;;7.10;3.53;;;22.00;81.30;;;;;;5017723;28;20399;-75
2023/10/11 09:42:04;;;;;;;8.43;3.95;;;22.10;81.20;;;;;;5015855;28;20017;-75
2023/10/11 09:44:37;;;;;;;5.55;3.80;;;22.20;81.20;;;;;;5014075;28;20099;-75
2023/10/11 09:47:31;;;;;;;4.18;3.15;;;22.30;81.00;;;;;;5002153;28;20033;-76
2023/10/11 09:49:59;;;;;;;4.18;3.05;;;22.30;80.70;;;;;;5044194;28;20030;-76
2023/10/11 09:52:28;;;;;;;5.40;3.53;;;22.50;80.80;;;;;;5013100;28;20124;-75
2023/10/11 09:54:55;;;;;;;4.40;3.97;;;22.50;80.50;;;;;;5023751;28;20041;-76
2023/10/11 09:57:50;;;;;;;5.82;4.03;;;22.60;80.30;;;;;;5012954;28;20079;-76
2023/10/11 10:00:40;;;;;;;6.60;3.75;;;22.70;79.90;;;;;;5018366;28;20257;-77
2023/10/11 10:03:12;;;;;;;5.00;3.55;;;22.80;79.80;;;;;;5018750;28;20099;-75
2023/10/11 10:06:08;;;;;;;4.88;4.00;;;22.90;79.70;;;;;;5023161;28;20124;-76
2023/10/11 10:08:34;;;;;;;6.75;3.63;;;23.10;79.50;;;;;;4998011;28;20101;-76
2023/10/11 10:11:02;;;;;;;9.05;4.43;;;23.20;79.50;;;;;;5026009;28;20029;-76
2023/10/11 10:13:30;;;;;;;7.28;4.35;;;23.20;79.20;;;;;;5015946;28;20288;-76
2023/10/11 10:15:57;;;;;;;12.45;5.82;;;23.30;78.90;;;;;;5043992;28;20452;-75
2023/10/11 10:18:24;;;;;;;104.30;27.40;;;23.40;78.90;;;;;;5023606;28;20025;-75
2023/10/11 10:21:02;;;;;;;98.55;22.88;;;23.40;78.60;;;;;;5019093;28;20436;-76
2023/10/11 10:23:29;;;;;;;83.07;21.88;;;23.40;78.90;;;;;;5017547;28;20037;-75
2023/10/11 10:26:07;;;;;;;82.80;20.27;;;23.40;78.30;;;;;;5017553;28;20064;-76
2023/10/11 10:28:35;;;;;;;48.33;15.60;;;23.50;78.30;;;;;;5016074;28;20563;-77
2023/10/11 10:31:09;;;;;;;49.63;14.35;;;23.50;78.30;;;;;;5012256;28;20085;-75
2023/10/11 10:33:36;;;;;;;61.30;16.63;;;23.50;78.00;;;;;;5020371;28;20091;-76
2023/10/11 10:36:19;;;;;;;38.80;13.07;;;23.60;78.10;;;;;;5012676;28;20052;-75
2023/10/11 10:39:00;;;;;;;51.75;13.32;;;23.60;77.80;;;;;;5019266;28;20107;-75
2023/10/11 10:41:32;;;;;;;35.17;11.53;;;23.60;77.70;;;;;;5015026;28;20137;-75
2023/10/11 10:44:08;;;;;;;39.60;12.70;;;23.70;77.90;;;;;;5015131;28;20518;-76
2023/10/11 10:46:49;;;;;;;27.58;11.65;;;23.70;77.60;;;;;;5012612;28;20036;-76
2023/10/11 10:49:17;;;;;;;26.88;11.45;;;23.80;77.50;;;;;;5012734;28;20523;-75
2023/10/11 10:51:51;;;;;;;31.63;10.13;;;23.90;77.50;;;;;;5013500;28;20114;-75
2023/10/11 10:54:17;;;;;;;25.65;9.35;;;24.00;77.50;;;;;;5014045;28;20071;-75
2023/10/11 10:56:47;;;;;;;22.63;9.00;;;24.00;77.20;;;;;;5014673;28;20175;-78
2023/10/11 10:59:20;;;;;;;20.95;10.15;;;24.10;77.10;;;;;;5013200;28;20091;-76
2023/10/11 11:01:48;;;;;;;19.60;9.45;;;24.10;77.00;;;;;;5017879;28;20124;-75
2023/10/11 11:04:20;;;;;;;18.92;9.05;;;24.10;76.80;;;;;;5015407;28;20530;-75
2023/10/11 11:06:47;;;;;;;23.55;9.95;;;24.10;76.70;;;;;;5015164;28;20061;-76
2023/10/11 11:09:19;;;;;;;14.35;8.55;;;24.10;76.50;;;;;;5013099;28;20036;-77
2023/10/11 11:11:46;;;;;;;20.20;8.65;;;24.20;76.50;;;;;;5018423;28;20116;-76
2023/10/11 11:14:14;;;;;;;15.30;7.78;;;24.20;76.40;;;;;;5013169;28;20037;-75
2023/10/11 11:16:44;;;;;;;17.27;7.82;;;24.20;76.30;;;;;;5010391;28;20401;-74
2023/10/11 11:19:16;;;;;;;19.55;10.40;;;24.30;76.30;;;;;;5012541;28;20393;-75
2023/10/11 11:21:46;;;;;;;15.90;7.35;;;24.30;76.20;;;;;;5014944;28;20491;-76
2023/10/11 11:24:34;;;;;;;21.98;8.52;;;24.40;76.20;;;;;;5015032;28;20083;-76
2023/10/11 11:27:06;;;;;;;13.82;8.60;;;24.50;76.10;;;;;;5012700;28;20043;-76
2023/10/11 11:29:33;;;;;;;19.65;8.48;;;24.50;75.90;;;;;;5012233;28;20120;-76
2023/10/11 11:32:07;;;;;;;14.55;8.18;;;24.60;75.90;;;;;;5011503;28;21161;-76
2023/10/11 11:34:38;;;;;;;17.08;7.32;;;24.70;75.90;;;;;;5014772;28;20485;-76
2023/10/11 11:37:10;;;;;;;12.75;7.75;;;24.70;75.60;;;;;;5014599;28;20033;-77
2023/10/11 11:39:39;;;;;;;15.50;8.15;;;24.80;75.60;;;;;;5022163;28;20060;-76
2023/10/11 11:42:24;;;;;;;16.45;7.80;;;24.90;75.60;;;;;;5014765;28;20037;-76
2023/10/11 11:44:53;;;;;;;12.48;7.55;;;25.00;75.50;;;;;;5019263;28;20500;-75
2023/10/11 11:47:21;;;;;;;14.50;8.30;;;25.10;75.30;;;;;;5010192;28;20551;-76
2023/10/11 11:49:47;;;;;;;15.90;7.60;;;25.10;75.00;;;;;;5029145;28;20084;-76
2023/10/11 11:52:16;;;;;;;11.27;6.75;;;25.20;74.80;;;;;;5015279;28;20120;-76
2023/10/11 11:54:43;;;;;;;10.85;6.00;;;25.20;74.60;;;;;;5022077;28;20025;-76
2023/10/11 11:57:10;;;;;;;11.30;7.30;;;25.30;74.40;;;;;;5008644;28;20037;-76
2023/10/11 11:59:37;;;;;;;13.43;7.03;;;25.30;74.30;;;;;;5008490;28;20140;-76
2023/10/11 12:02:08;;;;;;;10.38;5.97;;;25.30;74.10;;;;;;5011154;28;20037;-76
2023/10/11 12:04:36;;;;;;;11.70;5.55;;;25.40;74.10;;;;;;5019782;28;20033;-76
2023/10/11 12:07:09;;;;;;;12.38;6.38;;;25.50;74.10;;;;;;5013479;28;20036;-77
2023/10/11 12:09:37;;;;;;;9.57;6.07;;;25.60;73.90;;;;;;5011630;28;20038;-76
2023/10/11 12:12:05;;;;;;;12.20;5.72;;;25.70;73.80;;;;;;5014462;28;20060;-75
2023/10/11 12:14:37;;;;;;;14.18;6.57;;;25.80;73.60;;;;;;5015212;28;20099;-75
2023/10/11 12:17:10;;;;;;;10.57;7.03;;;25.80;73.50;;;;;;5010916;28;20029;-76
2023/10/11 12:19:42;;;;;;;16.00;5.88;;;25.80;73.20;;;;;;5014304;28;20038;-75
2023/10/11 12:22:13;;;;;;;13.57;7.07;;;25.80;73.10;;;;;;5020454;28;20370;-76
2023/10/11 12:24:44;;;;;;;9.88;5.35;;;25.90;73.00;;;;;;5014870;28;20036;-75
2023/10/11 12:27:11;;;;;;;14.52;5.68;;;25.90;72.80;;;;;;5009285;28;20430;-76
2023/10/11 12:29:38;;;;;;;8.93;5.35;;;26.00;72.70;;;;;;5015519;28;20548;-77
2023/10/11 12:32:07;;;;;;;12.50;6.03;;;26.00;72.60;;;;;;5022059;28;20065;-77
2023/10/11 12:34:33;;;;;;;10.13;5.68;;;26.00;72.50;;;;;;5015844;28;20570;-76
2023/10/11 12:37:02;;;;;;;9.20;6.25;;;26.00;72.30;;;;;;5015344;28;20061;-76
2023/10/11 12:39:33;;;;;;;11.40;5.30;;;26.10;72.20;;;;;;5014128;28;20452;-75
2023/10/11 12:41:59;;;;;;;11.35;7.10;;;26.10;72.20;;;;;;5013966;28;20037;-75
2023/10/11 12:44:28;;;;;;;14.60;7.22;;;26.10;72.00;;;;;;4993475;28;20036;-76
2023/10/11 12:46:58;;;;;;;9.18;5.50;;;26.10;71.70;;;;;;5010572;28;20120;-76
2023/10/11 12:49:30;;;;;;;9.88;5.35;;;26.10;71.50;;;;;;5014390;28;20040;-76
2023/10/11 12:51:57;;;;;;;10.13;5.82;;;26.10;71.60;;;;;;5010344;28;20069;-75
2023/10/11 12:54:23;;;;;;;15.98;7.53;;;26.10;71.50;;;;;;5012791;28;20112;-76
2023/10/11 12:56:49;;;;;;;9.65;6.55;;;26.20;71.50;;;;;;5009752;28;20052;-76
2023/10/11 12:59:19;;;;;;;12.13;6.32;;;26.10;71.30;;;;;;5009145;28;20034;-76
2023/10/11 13:01:57;;;;;;;13.05;7.03;;;26.10;71.20;;;;;;5010068;28;20056;-75
2023/10/11 13:04:36;;;;;;;6.68;5.03;;;26.10;71.00;;;;;;5009575;28;20065;-75
2023/10/11 13:07:10;;;;;;;9.60;5.47;;;26.10;71.10;;;;;;5013229;28;20749;-76
2023/10/11 13:09:36;;;;;;;11.65;6.43;;;26.10;71.20;;;;;;5015342;28;20037;-76
2023/10/11 13:12:05;;;;;;;13.85;6.88;;;26.10;71.10;;;;;;5012822;28;20071;-76
2023/10/11 13:14:33;;;;;;;14.48;6.93;;;26.10;71.00;;;;;;5014283;28;20033;-76
2023/10/11 13:17:00;;;;;;;11.45;6.00;;;26.10;71.00;;;;;;4996603;28;20041;-76
2023/10/11 13:19:27;;;;;;;13.88;6.20;;;26.10;71.00;;;;;;5017764;28;20041;-77
2023/10/11 13:21:55;;;;;;;7.38;5.18;;;26.00;70.80;;;;;;5014303;28;20443;-76
2023/10/11 13:24:25;;;;;;;12.65;6.75;;;26.00;70.80;;;;;;5012173;28;20088;-76
2023/10/11 13:26:55;;;;;;;14.98;7.78;;;26.00;71.40;;;;;;5017802;28;20072;-76
2023/10/11 13:29:22;;;;;;;18.17;7.70;;;26.00;70.80;;;;;;5017308;28;20430;-75
2023/10/11 13:31:53;;;;;;;10.65;6.40;;;25.90;70.70;;;;;;5017519;28;20063;-76
2023/10/11 13:34:28;;;;;;;10.23;6.50;;;25.90;70.50;;;;;;5016446;28;20038;-77
2023/10/11 13:36:57;;;;;;;13.40;7.85;;;25.90;70.50;;;;;;5012806;28;20033;-78
2023/10/11 13:39:27;;;;;;;11.02;6.95;;;25.90;70.40;;;;;;5016569;28;20052;-76
2023/10/11 13:42:04;;;;;;;9.73;6.88;;;25.90;70.50;;;;;;5024836;28;20665;-76
2023/10/11 13:44:35;;;;;;;9.82;7.05;;;25.80;70.30;;;;;;5014551;28;20033;-76
2023/10/11 13:47:06;;;;;;;10.20;6.90;;;25.80;70.30;;;;;;5008977;28;20577;-76
2023/10/11 13:49:33;;;;;;;10.70;7.15;;;25.80;70.30;;;;;;4992074;28;20497;-76
2023/10/11 13:52:02;;;;;;;13.82;7.53;;;25.70;70.30;;;;;;5026465;28;20026;-76
2023/10/11 13:54:42;;;;;;;10.88;6.88;;;25.60;70.30;;;;;;5018531;28;20743;-75
2023/10/11 13:57:11;;;;;;;11.40;7.38;;;25.50;70.30;;;;;;5044926;28;20516;-76
2023/10/11 13:59:54;;;;;;;9.93;7.13;;;25.40;70.40;;;;;;5013805;28;20049;-77